Terminal Aerodrome Forecast
Issued by NWS

Home | Current Version | Previous Version | Text Only | Print | Product List | Glossary On
Versions: 1 2 3 4 5 6 7 8 9 10 11 12 13 14 15
000
FTUS45 KCYS 301213 CCA
TAFLAR
TAF COR
KLAR 301213Z 3012/0112 22006KT P6SM VCSH BKN060
     FM301700 29009KT P6SM VCTS BKN070CB
     FM010000 29007KT P6SM BKN100
     FM010500 22005KT P6SM BKN200=

USA.gov is the U.S. government's official web portal to all federal, state and local government web resources and services.